Time;durP1;ratioP1;P1;durP2;ratioP2;P2;SDS_P1;SDS_P2;PMS_P1;PMS_P2;Temp;Humidity;BMP_temperature;BMP_pressure;BME280_temperature;BME280_humidity;BME280_pressure;Samples;Min_cycle;Max_cycle;Signal;HPM_P1;HPM_P2
2021/12/17 00:01:55;;;;;;;0.20;0.20;;;;;;;;;;5029404;28;20234;-74
2021/12/17 00:04:28;;;;;;;0.20;0.20;;;;;;;;;;5024146;28;20399;-76
2021/12/17 00:06:55;;;;;;;0.10;0.10;;;;;;;;;;5024067;28;20242;-75
2021/12/17 00:09:21;;;;;;;0.30;0.30;;;;;;;;;;5024065;28;20205;-74
2021/12/17 00:11:47;;;;;;;0.20;0.20;;;;;;;;;;5024182;28;20204;-75
2021/12/17 00:14:24;;;;;;;0.10;0.10;;;;;;;;;;5024141;28;20208;-74
2021/12/17 00:16:50;;;;;;;0.10;0.10;;;;;;;;;;5024345;28;20238;-73
2021/12/17 00:19:23;;;;;;;0.10;0.10;;;;;;;;;;5024272;28;20509;-75
2021/12/17 00:44:13;;;;;;;0.20;0.20;;;;;;;;;;5023686;28;20204;-73
2021/12/17 00:49:22;;;;;;;0.10;0.10;;;;;;;;;;5023224;28;20235;-74
2021/12/17 00:51:58;;;;;;;0.17;0.17;;;;;;;;;;5023410;28;20211;-74
2021/12/17 00:54:32;;;;;;;0.10;0.10;;;;;;;;;;5023777;28;20487;-73
2021/12/17 00:56:59;;;;;;;0.13;0.13;;;;;;;;;;5033722;28;20259;-74
2021/12/17 00:59:26;;;;;;;0.20;0.20;;;;;;;;;;5062984;28;20222;-73
2021/12/17 01:01:55;;;;;;;1.27;1.17;;;;;;;;;;5063286;28;20226;-74
2021/12/17 01:04:21;;;;;;;0.10;0.10;;;;;;;;;;5057897;28;20208;-74
2021/12/17 01:06:47;;;;;;;0.20;0.20;;;;;;;;;;5042858;28;20236;-74
2021/12/17 01:09:16;;;;;;;0.33;0.33;;;;;;;;;;5042930;28;20275;-73
2021/12/17 01:11:43;;;;;;;0.10;0.10;;;;;;;;;;5043198;28;20521;-74
2021/12/17 01:14:10;;;;;;;0.30;0.30;;;;;;;;;;5043439;28;20491;-75
2021/12/17 01:16:36;;;;;;;0.10;0.10;;;;;;;;;;5043236;28;20507;-74
2021/12/17 01:19:13;;;;;;;0.10;0.10;;;;;;;;;;5024977;28;20366;-74
2021/12/17 01:21:55;;;;;;;0.10;0.10;;;;;;;;;;5023274;28;20243;-74
2021/12/17 01:24:41;;;;;;;0.20;0.20;;;;;;;;;;5023432;28;20193;-74
2021/12/17 01:35:21;;;;;;;1.07;1.03;;;;;;;;;;5023205;28;20244;-74
2021/12/17 01:38:51;;;;;;;0.20;0.20;;;;;;;;;;5023057;28;20209;-74
2021/12/17 01:41:19;;;;;;;0.10;0.10;;;;;;;;;;5022838;28;20534;-74
2021/12/17 01:43:48;;;;;;;0.67;0.67;;;;;;;;;;5023112;28;20274;-74
2021/12/17 01:46:16;;;;;;;0.30;0.30;;;;;;;;;;5023164;28;20243;-74
2021/12/17 01:48:57;;;;;;;0.20;0.20;;;;;;;;;;5023041;28;20207;-74
2021/12/17 01:56:58;;;;;;;0.30;0.30;;;;;;;;;;5037143;28;20529;-74
2021/12/17 01:59:28;;;;;;;0.20;0.20;;;;;;;;;;5062765;28;20223;-74
2021/12/17 02:01:58;;;;;;;0.20;0.20;;;;;;;;;;5062158;28;20215;-73
2021/12/17 02:04:25;;;;;;;0.40;0.40;;;;;;;;;;5062556;28;20209;-73
2021/12/17 02:06:52;;;;;;;0.83;0.83;;;;;;;;;;5062225;28;20235;-74
2021/12/17 02:20:39;;;;;;;0.20;0.20;;;;;;;;;;5046162;28;20270;-74
2021/12/17 02:28:41;;;;;;;0.10;0.10;;;;;;;;;;5046223;28;20523;-73
2021/12/17 02:28:56;;;;;;;0.10;0.10;;;;;;;;;;5045944;28;20232;-73
2021/12/17 02:31:26;;;;;;;0.10;0.10;;;;;;;;;;5046053;28;20238;-73
2021/12/17 02:33:53;;;;;;;0.10;0.10;;;;;;;;;;5046174;28;20192;-74
2021/12/17 02:36:24;;;;;;;0.10;0.10;;;;;;;;;;5045887;28;20241;-73
2021/12/17 02:38:54;;;;;;;0.20;0.20;;;;;;;;;;5032846;28;20282;-75
2021/12/17 02:46:48;;;;;;;0.10;0.10;;;;;;;;;;5039142;28;20543;-74
2021/12/17 02:49:14;;;;;;;0.20;0.20;;;;;;;;;;5033172;28;20247;-74
2021/12/17 02:51:41;;;;;;;0.17;0.17;;;;;;;;;;5031459;28;20208;-73
2021/12/17 02:54:09;;;;;;;0.20;0.20;;;;;;;;;;5028384;28;20394;-74
2021/12/17 02:56:35;;;;;;;0.20;0.20;;;;;;;;;;5025471;28;20211;-73
2021/12/17 02:59:02;;;;;;;0.20;0.20;;;;;;;;;;5042995;28;20253;-74
2021/12/17 03:01:28;;;;;;;0.10;0.10;;;;;;;;;;5045543;28;20229;-73
2021/12/17 03:03:56;;;;;;;0.10;0.10;;;;;;;;;;5041358;28;20400;-74
2021/12/17 03:06:22;;;;;;;0.13;0.13;;;;;;;;;;5035286;28;20243;-74
2021/12/17 03:08:48;;;;;;;0.10;0.10;;;;;;;;;;5028718;28;20259;-73
2021/12/17 03:11:17;;;;;;;0.13;0.13;;;;;;;;;;5051821;28;20203;-74
2021/12/17 03:13:45;;;;;;;0.20;0.20;;;;;;;;;;5028616;28;20220;-72
2021/12/17 03:16:23;;;;;;;0.10;0.10;;;;;;;;;;5040560;28;20201;-75
2021/12/17 03:19:00;;;;;;;0.10;0.10;;;;;;;;;;5027468;28;20294;-74
2021/12/17 03:24:11;;;;;;;2.97;1.23;;;;;;;;;;5029683;28;20223;-75
2021/12/17 03:26:38;;;;;;;0.10;0.10;;;;;;;;;;5027630;28;20271;-74
2021/12/17 03:29:07;;;;;;;0.10;0.10;;;;;;;;;;5035865;28;20215;-74
2021/12/17 03:31:33;;;;;;;0.10;0.10;;;;;;;;;;5031842;28;20270;-74
2021/12/17 03:34:10;;;;;;;0.10;0.10;;;;;;;;;;5032451;28;20539;-74
2021/12/17 03:36:36;;;;;;;0.10;0.10;;;;;;;;;;5026333;28;20203;-73
2021/12/17 03:39:03;;;;;;;0.10;0.10;;;;;;;;;;5024649;28;20240;-74
2021/12/17 03:41:36;;;;;;;0.20;0.20;;;;;;;;;;5024661;28;20326;-73
2021/12/17 03:44:04;;;;;;;0.10;0.10;;;;;;;;;;5024456;28;20370;-74
2021/12/17 03:46:30;;;;;;;0.20;0.20;;;;;;;;;;5024574;28;20585;-74
2021/12/17 03:48:56;;;;;;;0.20;0.20;;;;;;;;;;5035003;28;20258;-74
2021/12/17 03:51:24;;;;;;;0.10;0.10;;;;;;;;;;5024779;28;20216;-74
2021/12/17 03:53:51;;;;;;;0.83;0.83;;;;;;;;;;5033386;28;20263;-75
2021/12/17 03:56:18;;;;;;;0.10;0.10;;;;;;;;;;5044478;28;20260;-74
2021/12/17 03:58:44;;;;;;;0.10;0.10;;;;;;;;;;5024739;28;20550;-74
2021/12/17 04:01:12;;;;;;;0.10;0.10;;;;;;;;;;5024276;28;20207;-74
2021/12/17 04:03:38;;;;;;;0.17;0.17;;;;;;;;;;5024411;28;20227;-74
2021/12/17 04:06:05;;;;;;;0.10;0.10;;;;;;;;;;5024239;28;20554;-74
2021/12/17 04:08:31;;;;;;;0.10;0.10;;;;;;;;;;5024631;28;20569;-74
2021/12/17 04:11:04;;;;;;;0.10;0.10;;;;;;;;;;5024304;28;20436;-74
2021/12/17 04:13:33;;;;;;;0.30;0.30;;;;;;;;;;5024520;28;20327;-74
2021/12/17 04:16:00;;;;;;;0.10;0.10;;;;;;;;;;5024304;28;20404;-75
2021/12/17 04:18:28;;;;;;;0.13;0.13;;;;;;;;;;5024199;28;20214;-74
2021/12/17 04:20:54;;;;;;;0.20;0.20;;;;;;;;;;5024200;28;20208;-73
2021/12/17 04:23:21;;;;;;;0.10;0.10;;;;;;;;;;5023988;28;20228;-74
2021/12/17 04:25:48;;;;;;;0.10;0.10;;;;;;;;;;5024057;28;20348;-74
2021/12/17 04:28:14;;;;;;;0.20;0.20;;;;;;;;;;5023910;28;20283;-73
2021/12/17 04:30:41;;;;;;;0.10;0.10;;;;;;;;;;5023771;28;20296;-73
2021/12/17 04:33:07;;;;;;;0.20;0.20;;;;;;;;;;5023221;28;20212;-73
2021/12/17 04:35:36;;;;;;;0.10;0.10;;;;;;;;;;5024006;28;20296;-74
2021/12/17 04:38:04;;;;;;;0.10;0.10;;;;;;;;;;5031291;28;20208;-75
2021/12/17 04:40:31;;;;;;;0.10;0.10;;;;;;;;;;5043372;28;20211;-73
2021/12/17 04:43:09;;;;;;;0.20;0.20;;;;;;;;;;5043190;28;20230;-74
2021/12/17 04:45:41;;;;;;;0.20;0.20;;;;;;;;;;5043363;28;20208;-74
2021/12/17 04:59:06;;;;;;;0.10;0.10;;;;;;;;;;5043076;28;20223;-73
2021/12/17 05:01:33;;;;;;;0.10;0.10;;;;;;;;;;5042901;28;20379;-74
2021/12/17 05:04:00;;;;;;;0.20;0.20;;;;;;;;;;5042659;28;20226;-73
2021/12/17 05:06:29;;;;;;;0.23;0.23;;;;;;;;;;5042876;28;20242;-73
2021/12/17 05:09:00;;;;;;;0.10;0.10;;;;;;;;;;5043385;28;20262;-74
2021/12/17 05:11:49;;;;;;;0.10;0.10;;;;;;;;;;5043345;28;20192;-74
2021/12/17 05:19:46;;;;;;;0.10;0.10;;;;;;;;;;5043035;28;20226;-74
2021/12/17 05:22:14;;;;;;;0.17;0.17;;;;;;;;;;5042852;28;20319;-74
2021/12/17 05:24:40;;;;;;;0.10;0.10;;;;;;;;;;5042948;28;20234;-75
2021/12/17 05:27:07;;;;;;;0.20;0.20;;;;;;;;;;5041739;28;20215;-74
2021/12/17 05:29:33;;;;;;;0.30;0.30;;;;;;;;;;5022833;28;20230;-75
2021/12/17 05:31:59;;;;;;;0.20;0.20;;;;;;;;;;5023326;28;20208;-73
2021/12/17 05:34:25;;;;;;;0.10;0.10;;;;;;;;;;5023058;28;20204;-74
2021/12/17 05:36:51;;;;;;;0.20;0.20;;;;;;;;;;5023364;28;20265;-75
2021/12/17 05:39:19;;;;;;;0.10;0.10;;;;;;;;;;5023243;28;20209;-74
2021/12/17 05:41:46;;;;;;;0.10;0.10;;;;;;;;;;5023261;28;20210;-74
2021/12/17 05:44:14;;;;;;;0.20;0.20;;;;;;;;;;5025370;28;20318;-74
2021/12/17 05:46:49;;;;;;;0.10;0.10;;;;;;;;;;5027191;28;20525;-74
2021/12/17 05:49:16;;;;;;;0.20;0.20;;;;;;;;;;5027092;28;20528;-73
2021/12/17 05:51:42;;;;;;;0.10;0.10;;;;;;;;;;5026962;28;20246;-73
2021/12/17 05:54:08;;;;;;;0.10;0.10;;;;;;;;;;5026648;28;20211;-73
2021/12/17 05:56:35;;;;;;;0.20;0.20;;;;;;;;;;5030679;28;20204;-73
2021/12/17 05:59:02;;;;;;;0.13;0.13;;;;;;;;;;5066813;28;20215;-73
2021/12/17 06:01:28;;;;;;;0.20;0.20;;;;;;;;;;5066279;28;20207;-73
2021/12/17 06:03:54;;;;;;;0.13;0.13;;;;;;;;;;5066611;28;20416;-73
2021/12/17 06:06:28;;;;;;;0.20;0.20;;;;;;;;;;5066164;28;20292;-73
2021/12/17 06:08:54;;;;;;;0.33;0.33;;;;;;;;;;5066445;28;20205;-73
2021/12/17 06:11:20;;;;;;;0.20;0.20;;;;;;;;;;5066011;28;20328;-74
2021/12/17 06:13:47;;;;;;;0.17;0.17;;;;;;;;;;5036120;28;20208;-74
2021/12/17 06:16:14;;;;;;;0.10;0.10;;;;;;;;;;5026439;28;20208;-73
2021/12/17 06:18:40;;;;;;;0.10;0.10;;;;;;;;;;5026094;28;20528;-75
2021/12/17 06:21:06;;;;;;;0.20;0.20;;;;;;;;;;5026379;28;20208;-73
2021/12/17 06:23:32;;;;;;;0.10;0.10;;;;;;;;;;5026281;28;20228;-75
2021/12/17 06:25:58;;;;;;;0.10;0.10;;;;;;;;;;5025941;28;20206;-73
2021/12/17 06:28:25;;;;;;;0.50;0.50;;;;;;;;;;5026371;28;20332;-73
2021/12/17 06:30:52;;;;;;;1.63;1.63;;;;;;;;;;5026121;28;20227;-74
2021/12/17 06:33:18;;;;;;;0.20;0.20;;;;;;;;;;5026138;28;20555;-73
2021/12/17 06:35:45;;;;;;;0.10;0.10;;;;;;;;;;5025806;28;20205;-74
2021/12/17 06:38:11;;;;;;;0.17;0.17;;;;;;;;;;5026193;28;20208;-74
2021/12/17 06:40:37;;;;;;;0.20;0.20;;;;;;;;;;5026096;28;20242;-74
2021/12/17 06:43:04;;;;;;;0.10;0.10;;;;;;;;;;5025652;28;20207;-74
2021/12/17 06:45:44;;;;;;;0.10;0.10;;;;;;;;;;5025564;28;20239;-73
2021/12/17 06:48:11;;;;;;;0.10;0.10;;;;;;;;;;5025929;28;20255;-75
2021/12/17 06:56:59;;;;;;;0.10;0.10;;;;;;;;;;5025046;28;20191;-75
2021/12/17 06:59:35;;;;;;;0.20;0.20;;;;;;;;;;5025317;28;20209;-74
2021/12/17 07:10:38;;;;;;;0.10;0.10;;;;;;;;;;5025598;28;20468;-74
2021/12/17 07:21:38;;;;;;;0.10;0.10;;;;;;;;;;5043541;28;20241;-74
2021/12/17 07:32:32;;;;;;;0.10;0.10;;;;;;;;;;5024912;28;20212;-73
2021/12/17 07:40:39;;;;;;;0.17;0.17;;;;;;;;;;5022156;28;20282;-73
2021/12/17 07:43:11;;;;;;;0.20;0.20;;;;;;;;;;5026917;28;20310;-72
2021/12/17 07:45:38;;;;;;;0.10;0.10;;;;;;;;;;5029043;28;20491;-73
2021/12/17 07:48:04;;;;;;;0.17;0.17;;;;;;;;;;5038616;28;20208;-75
2021/12/17 07:50:30;;;;;;;0.20;0.20;;;;;;;;;;5044151;28;20203;-72
2021/12/17 07:52:59;;;;;;;0.17;0.17;;;;;;;;;;5044538;28;20435;-73
2021/12/17 07:55:25;;;;;;;0.67;0.57;;;;;;;;;;5037468;28;20494;-74
2021/12/17 07:57:51;;;;;;;0.10;0.10;;;;;;;;;;5037480;28;20282;-73
2021/12/17 08:00:17;;;;;;;0.10;0.10;;;;;;;;;;5044373;28;20572;-73
2021/12/17 08:02:44;;;;;;;0.20;0.20;;;;;;;;;;5044075;28;20200;-73
2021/12/17 08:05:10;;;;;;;0.13;0.13;;;;;;;;;;5032679;28;20527;-72
2021/12/17 08:07:36;;;;;;;0.10;0.10;;;;;;;;;;5023528;28;20254;-73
2021/12/17 08:10:04;;;;;;;0.10;0.10;;;;;;;;;;5024503;28;20393;-72
2021/12/17 08:12:30;;;;;;;0.10;0.10;;;;;;;;;;5029993;28;20275;-72
2021/12/17 08:14:56;;;;;;;0.10;0.10;;;;;;;;;;5044064;28;20203;-74
2021/12/17 08:17:43;;;;;;;0.10;0.10;;;;;;;;;;5036789;28;20213;-73
2021/12/17 08:26:04;;;;;;;1.77;1.70;;;;;;;;;;4987891;28;20215;-72
2021/12/17 08:28:50;;;;;;;0.20;0.20;;;;;;;;;;5022166;28;20234;-73
2021/12/17 08:31:16;;;;;;;0.17;0.17;;;;;;;;;;5026528;28;20517;-72
2021/12/17 08:33:43;;;;;;;0.17;0.17;;;;;;;;;;5023120;28;20242;-73
2021/12/17 08:36:09;;;;;;;0.17;0.17;;;;;;;;;;5026477;28;20250;-74
2021/12/17 08:38:35;;;;;;;0.20;0.20;;;;;;;;;;5043300;28;20320;-73
2021/12/17 08:41:03;;;;;;;0.20;0.20;;;;;;;;;;5043193;28;20203;-73
2021/12/17 08:43:29;;;;;;;0.17;0.17;;;;;;;;;;5043427;28;20215;-73
2021/12/17 08:45:55;;;;;;;0.10;0.10;;;;;;;;;;5039227;28;20209;-73
2021/12/17 08:48:21;;;;;;;0.20;0.20;;;;;;;;;;5040923;28;20207;-74
2021/12/17 08:50:47;;;;;;;0.20;0.20;;;;;;;;;;5042875;28;20203;-73
2021/12/17 08:53:14;;;;;;;0.17;0.17;;;;;;;;;;5029634;28;20208;-73
2021/12/17 08:55:40;;;;;;;0.10;0.10;;;;;;;;;;5023732;28;20247;-73
2021/12/17 08:58:12;;;;;;;0.10;0.10;;;;;;;;;;5023479;28;20479;-73
2021/12/17 09:00:38;;;;;;;0.10;0.10;;;;;;;;;;5023599;28;20209;-72
2021/12/17 09:03:06;;;;;;;0.20;0.20;;;;;;;;;;5023497;28;20212;-72
2021/12/17 09:05:32;;;;;;;0.13;0.13;;;;;;;;;;5025538;28;20549;-72
2021/12/17 09:07:59;;;;;;;0.20;0.20;;;;;;;;;;5040045;28;20254;-73
2021/12/17 09:10:25;;;;;;;0.17;0.17;;;;;;;;;;5042713;28;20227;-74
2021/12/17 09:12:51;;;;;;;0.10;0.10;;;;;;;;;;5034618;28;20204;-72
2021/12/17 09:15:19;;;;;;;0.10;0.10;;;;;;;;;;5036311;28;20366;-73
2021/12/17 09:17:45;;;;;;;0.20;0.20;;;;;;;;;;5028136;28;20207;-73
2021/12/17 09:20:11;;;;;;;0.20;0.20;;;;;;;;;;5041813;28;20208;-73
2021/12/17 09:22:37;;;;;;;0.20;0.20;;;;;;;;;;5034602;28;20506;-72
2021/12/17 09:25:04;;;;;;;0.20;0.20;;;;;;;;;;5028300;28;20219;-74
2021/12/17 09:27:30;;;;;;;0.10;0.10;;;;;;;;;;5034494;28;20203;-72
2021/12/17 09:29:57;;;;;;;0.20;0.20;;;;;;;;;;5034434;28;20277;-72
2021/12/17 09:32:24;;;;;;;0.20;0.20;;;;;;;;;;5030536;28;20208;-73
2021/12/17 09:34:51;;;;;;;0.20;0.20;;;;;;;;;;5023085;28;20499;-72
2021/12/17 09:37:17;;;;;;;0.20;0.20;;;;;;;;;;5022796;28;20219;-73
2021/12/17 09:39:44;;;;;;;0.10;0.10;;;;;;;;;;5025576;28;20211;-72
2021/12/17 09:42:11;;;;;;;0.10;0.10;;;;;;;;;;5025816;28;20231;-73
2021/12/17 09:44:37;;;;;;;0.20;0.20;;;;;;;;;;5022832;28;20235;-74
2021/12/17 09:47:03;;;;;;;0.10;0.10;;;;;;;;;;5023181;28;20438;-73
2021/12/17 09:49:31;;;;;;;0.10;0.10;;;;;;;;;;5025519;28;20201;-74
2021/12/17 09:51:59;;;;;;;0.10;0.10;;;;;;;;;;5022955;28;20281;-73
2021/12/17 09:54:25;;;;;;;0.20;0.20;;;;;;;;;;5024738;28;20232;-73
2021/12/17 09:56:52;;;;;;;0.10;0.10;;;;;;;;;;5022849;28;20211;-72
2021/12/17 09:59:18;;;;;;;0.17;0.17;;;;;;;;;;5028451;28;20211;-73
2021/12/17 10:01:46;;;;;;;0.20;0.20;;;;;;;;;;5033530;28;20209;-72
2021/12/17 10:04:13;;;;;;;0.20;0.20;;;;;;;;;;5024946;28;20228;-73
2021/12/17 10:06:40;;;;;;;0.17;0.17;;;;;;;;;;5041529;28;20246;-74
2021/12/17 10:09:07;;;;;;;0.10;0.10;;;;;;;;;;5042445;28;20230;-75
2021/12/17 10:11:33;;;;;;;0.10;0.10;;;;;;;;;;5041933;28;20265;-74
2021/12/17 10:14:15;;;;;;;0.10;0.10;;;;;;;;;;5042759;28;20226;-74
2021/12/17 10:16:42;;;;;;;0.10;0.10;;;;;;;;;;5042630;28;20242;-74
2021/12/17 10:19:08;;;;;;;0.10;0.10;;;;;;;;;;5042890;28;20211;-74
2021/12/17 10:21:38;;;;;;;0.10;0.10;;;;;;;;;;5042619;28;20208;-73
2021/12/17 10:24:06;;;;;;;0.10;0.10;;;;;;;;;;5042516;28;20508;-75
2021/12/17 10:26:41;;;;;;;0.10;0.10;;;;;;;;;;5042412;28;20244;-74
2021/12/17 10:29:08;;;;;;;0.10;0.10;;;;;;;;;;5041784;28;20203;-72
2021/12/17 10:31:36;;;;;;;0.10;0.10;;;;;;;;;;5045561;28;20204;-75
2021/12/17 10:34:04;;;;;;;0.20;0.20;;;;;;;;;;5045912;28;20207;-72
2021/12/17 10:36:31;;;;;;;0.20;0.20;;;;;;;;;;5045881;28;20212;-75
2021/12/17 10:38:57;;;;;;;0.20;0.20;;;;;;;;;;5045231;28;20215;-73
2021/12/17 10:41:27;;;;;;;0.10;0.10;;;;;;;;;;5045460;28;20262;-72
2021/12/17 10:43:59;;;;;;;0.10;0.10;;;;;;;;;;5045709;28;20207;-72
2021/12/17 10:46:28;;;;;;;0.10;0.10;;;;;;;;;;5032535;28;20204;-73
2021/12/17 10:49:00;;;;;;;0.20;0.20;;;;;;;;;;5025501;28;20208;-73
2021/12/17 10:51:43;;;;;;;0.13;0.13;;;;;;;;;;5029179;28;20565;-73
2021/12/17 10:54:10;;;;;;;0.10;0.10;;;;;;;;;;5028559;28;20276;-73
2021/12/17 10:56:39;;;;;;;0.10;0.10;;;;;;;;;;5035064;28;20207;-72
2021/12/17 10:59:06;;;;;;;0.13;0.13;;;;;;;;;;5065104;28;20207;-72
2021/12/17 11:01:34;;;;;;;0.10;0.10;;;;;;;;;;5050440;28;20621;-73
2021/12/17 11:04:05;;;;;;;0.10;0.10;;;;;;;;;;5045108;28;20251;-74
2021/12/17 11:06:41;;;;;;;0.10;0.10;;;;;;;;;;5045055;28;20278;-74
2021/12/17 11:09:08;;;;;;;0.20;0.20;;;;;;;;;;5045090;28;20245;-73
2021/12/17 11:11:41;;;;;;;0.20;0.20;;;;;;;;;;5044938;28;20504;-74
2021/12/17 11:14:09;;;;;;;0.20;0.20;;;;;;;;;;5045322;28;20238;-73
2021/12/17 11:16:36;;;;;;;0.10;0.10;;;;;;;;;;5037323;28;20215;-73
2021/12/17 11:19:02;;;;;;;0.20;0.20;;;;;;;;;;5025441;28;20208;-73
2021/12/17 11:21:29;;;;;;;0.20;0.20;;;;;;;;;;5024897;28;20209;-74
2021/12/17 11:23:56;;;;;;;0.10;0.10;;;;;;;;;;5029455;28;20219;-76
2021/12/17 11:26:22;;;;;;;0.13;0.13;;;;;;;;;;5038904;28;20273;-74
2021/12/17 11:28:50;;;;;;;0.10;0.10;;;;;;;;;;5028184;28;20231;-71
2021/12/17 11:31:18;;;;;;;0.10;0.10;;;;;;;;;;5044357;28;20214;-73
2021/12/17 11:33:45;;;;;;;0.10;0.10;;;;;;;;;;5024836;28;20262;-73
2021/12/17 11:36:11;;;;;;;0.33;0.33;;;;;;;;;;5040418;28;20203;-73
2021/12/17 11:38:42;;;;;;;0.10;0.10;;;;;;;;;;5038592;28;20229;-75
2021/12/17 11:41:14;;;;;;;0.10;0.10;;;;;;;;;;5033390;28;20468;-75
2021/12/17 11:43:50;;;;;;;0.20;0.20;;;;;;;;;;5026274;28;20201;-75
2021/12/17 11:46:18;;;;;;;0.10;0.10;;;;;;;;;;5024355;28;20284;-74
2021/12/17 11:48:50;;;;;;;0.20;0.20;;;;;;;;;;5027376;28;20433;-74
2021/12/17 11:51:17;;;;;;;0.10;0.10;;;;;;;;;;5024400;28;20295;-74
2021/12/17 11:53:55;;;;;;;0.20;0.20;;;;;;;;;;5029736;28;20506;-75
2021/12/17 11:56:32;;;;;;;0.10;0.10;;;;;;;;;;5032486;28;20216;-73
2021/12/17 11:58:58;;;;;;;0.10;0.10;;;;;;;;;;5029696;28;20220;-74
2021/12/17 12:01:43;;;;;;;0.10;0.10;;;;;;;;;;5029439;28;20203;-74
2021/12/17 12:04:23;;;;;;;0.20;0.20;;;;;;;;;;5043726;28;20216;-74
2021/12/17 12:06:59;;;;;;;0.10;0.10;;;;;;;;;;5032530;28;20436;-74
2021/12/17 12:09:40;;;;;;;0.10;0.10;;;;;;;;;;5027484;28;20554;-73
2021/12/17 12:12:10;;;;;;;0.20;0.20;;;;;;;;;;5025963;28;20263;-73
2021/12/17 12:14:36;;;;;;;0.10;0.10;;;;;;;;;;5026579;28;20205;-73
2021/12/17 12:17:03;;;;;;;0.10;0.10;;;;;;;;;;5034523;28;20211;-74
2021/12/17 12:19:47;;;;;;;0.17;0.17;;;;;;;;;;5028170;28;20504;-73
2021/12/17 12:22:13;;;;;;;0.20;0.20;;;;;;;;;;5033008;28;20205;-75
2021/12/17 12:24:40;;;;;;;0.10;0.10;;;;;;;;;;5031312;28;20212;-76
2021/12/17 12:27:06;;;;;;;0.10;0.10;;;;;;;;;;5028769;28;20558;-74
2021/12/17 12:29:35;;;;;;;0.10;0.10;;;;;;;;;;5031007;28;20423;-76
2021/12/17 12:32:02;;;;;;;0.20;0.20;;;;;;;;;;5034659;28;20208;-73
2021/12/17 12:34:37;;;;;;;0.20;0.20;;;;;;;;;;5032048;28;20204;-73
2021/12/17 12:37:09;;;;;;;0.10;0.10;;;;;;;;;;5035058;28;20246;-73
2021/12/17 12:39:38;;;;;;;0.10;0.10;;;;;;;;;;5025041;28;20272;-74
2021/12/17 12:42:06;;;;;;;0.10;0.10;;;;;;;;;;5024264;28;20530;-73
2021/12/17 12:44:52;;;;;;;0.13;0.13;;;;;;;;;;5023677;28;20211;-76
2021/12/17 12:47:37;;;;;;;0.10;0.10;;;;;;;;;;5023673;28;20275;-75
2021/12/17 12:50:08;;;;;;;0.10;0.10;;;;;;;;;;5023429;28;20197;-76
2021/12/17 12:52:37;;;;;;;0.10;0.10;;;;;;;;;;5023361;28;20458;-75
2021/12/17 12:55:05;;;;;;;0.20;0.20;;;;;;;;;;5023615;28;20293;-75
2021/12/17 12:57:33;;;;;;;0.10;0.10;;;;;;;;;;5040732;28;20208;-76
2021/12/17 13:00:00;;;;;;;0.20;0.20;;;;;;;;;;5037697;28;20495;-73
2021/12/17 13:02:27;;;;;;;0.17;0.17;;;;;;;;;;5031216;28;20216;-73
2021/12/17 13:04:53;;;;;;;0.20;0.20;;;;;;;;;;5026116;28;20208;-74
2021/12/17 13:07:32;;;;;;;0.10;0.10;;;;;;;;;;5026784;28;20236;-74
2021/12/17 13:09:58;;;;;;;0.10;0.10;;;;;;;;;;5023965;28;20205;-73
2021/12/17 13:12:25;;;;;;;0.10;0.10;;;;;;;;;;5025362;28;20212;-74
2021/12/17 13:14:55;;;;;;;0.10;0.10;;;;;;;;;;5023618;28;20404;-74
2021/12/17 13:17:51;;;;;;;0.10;0.10;;;;;;;;;;5023431;28;20194;-75
2021/12/17 13:20:42;;;;;;;0.17;0.17;;;;;;;;;;5023265;28;20203;-74
2021/12/17 13:23:18;;;;;;;0.10;0.10;;;;;;;;;;5032742;28;20227;-74
2021/12/17 13:25:44;;;;;;;0.30;0.30;;;;;;;;;;5023022;28;20226;-76
2021/12/17 13:28:10;;;;;;;0.20;0.20;;;;;;;;;;5023455;28;20211;-74
2021/12/17 13:30:37;;;;;;;0.10;0.10;;;;;;;;;;5023185;28;20209;-74
2021/12/17 13:33:03;;;;;;;0.10;0.10;;;;;;;;;;5023081;28;20205;-75
2021/12/17 13:35:33;;;;;;;0.10;0.10;;;;;;;;;;5023193;28;20205;-74
2021/12/17 13:38:01;;;;;;;0.10;0.10;;;;;;;;;;5023130;28;20205;-74
2021/12/17 13:40:28;;;;;;;0.10;0.10;;;;;;;;;;5023366;28;20205;-74
2021/12/17 13:42:55;;;;;;;0.10;0.10;;;;;;;;;;5023375;28;20212;-73
2021/12/17 13:45:22;;;;;;;0.20;0.20;;;;;;;;;;5041483;28;20224;-74
2021/12/17 13:47:50;;;;;;;0.20;0.20;;;;;;;;;;5043168;28;20507;-74
2021/12/17 13:50:19;;;;;;;0.10;0.10;;;;;;;;;;5043012;28;20280;-74
2021/12/17 13:52:47;;;;;;;0.10;0.10;;;;;;;;;;5042729;28;20208;-73
2021/12/17 13:55:15;;;;;;;0.10;0.10;;;;;;;;;;5040865;28;20218;-72
2021/12/17 13:57:43;;;;;;;0.10;0.10;;;;;;;;;;5038770;28;20215;-72
2021/12/17 14:00:12;;;;;;;0.10;0.10;;;;;;;;;;5042953;28;20212;-72
2021/12/17 14:02:41;;;;;;;0.10;0.10;;;;;;;;;;5030654;28;20206;-73
2021/12/17 14:05:09;;;;;;;0.10;0.10;;;;;;;;;;5023831;28;20217;-73
2021/12/17 14:07:36;;;;;;;0.10;0.10;;;;;;;;;;5026882;28;20275;-74
2021/12/17 14:10:06;;;;;;;0.20;0.20;;;;;;;;;;5040725;28;20258;-74
2021/12/17 14:12:33;;;;;;;0.20;0.20;;;;;;;;;;5040527;28;20220;-73
2021/12/17 14:15:01;;;;;;;0.13;0.13;;;;;;;;;;5030891;28;20212;-74
2021/12/17 14:17:37;;;;;;;0.10;0.10;;;;;;;;;;5045591;28;20227;-73
2021/12/17 14:20:06;;;;;;;0.10;0.10;;;;;;;;;;5046254;28;20216;-75
2021/12/17 14:22:34;;;;;;;0.10;0.10;;;;;;;;;;5046471;28;20241;-75
2021/12/17 14:25:00;;;;;;;0.20;0.20;;;;;;;;;;5046004;28;20238;-75
2021/12/17 14:27:43;;;;;;;0.20;0.20;;;;;;;;;;5046400;28;20495;-75
2021/12/17 14:30:11;;;;;;;0.10;0.10;;;;;;;;;;5046227;28;20211;-74
2021/12/17 14:32:40;;;;;;;0.10;0.10;;;;;;;;;;5046020;28;20446;-75
2021/12/17 14:35:07;;;;;;;0.10;0.10;;;;;;;;;;5035231;28;20391;-73
2021/12/17 14:37:45;;;;;;;0.10;0.10;;;;;;;;;;5042602;28;20208;-73
2021/12/17 14:40:23;;;;;;;0.10;0.10;;;;;;;;;;5039566;28;20201;-75
2021/12/17 14:42:51;;;;;;;0.10;0.10;;;;;;;;;;5042733;28;20397;-74
2021/12/17 14:45:21;;;;;;;0.10;0.10;;;;;;;;;;5034438;28;20579;-75
2021/12/17 14:47:54;;;;;;;0.10;0.10;;;;;;;;;;5025876;28;20251;-74
2021/12/17 15:01:35;;;;;;;0.17;0.17;;;;;;;;;;5025382;28;20215;-73
2021/12/17 15:04:01;;;;;;;0.10;0.10;;;;;;;;;;5027010;28;20503;-73
2021/12/17 15:06:27;;;;;;;0.10;0.10;;;;;;;;;;5045208;28;20270;-74
2021/12/17 15:08:53;;;;;;;0.10;0.10;;;;;;;;;;5045748;28;20204;-74
2021/12/17 15:11:27;;;;;;;0.13;0.13;;;;;;;;;;5045522;28;20239;-74
2021/12/17 15:13:54;;;;;;;0.10;0.10;;;;;;;;;;5045572;28;20193;-73
2021/12/17 15:16:22;;;;;;;0.10;0.10;;;;;;;;;;5044656;28;20317;-74
2021/12/17 15:18:48;;;;;;;0.10;0.10;;;;;;;;;;5045450;28;20207;-74
2021/12/17 15:21:14;;;;;;;0.13;0.13;;;;;;;;;;5045367;28;20204;-74
2021/12/17 15:23:40;;;;;;;0.10;0.10;;;;;;;;;;5045078;28;20208;-73
2021/12/17 15:26:07;;;;;;;0.10;0.10;;;;;;;;;;5044995;28;20570;-72
2021/12/17 15:28:33;;;;;;;0.10;0.10;;;;;;;;;;5031727;28;20253;-73
2021/12/17 15:31:02;;;;;;;0.20;0.20;;;;;;;;;;5025019;28;20494;-73
2021/12/17 15:33:29;;;;;;;0.10;0.10;;;;;;;;;;5025186;28;20492;-72
2021/12/17 15:35:56;;;;;;;0.10;0.10;;;;;;;;;;5025153;28;20457;-74
2021/12/17 15:38:23;;;;;;;0.13;0.13;;;;;;;;;;5025171;28;20213;-73
2021/12/17 15:40:50;;;;;;;0.10;0.10;;;;;;;;;;5024554;28;20233;-74
2021/12/17 15:43:17;;;;;;;0.10;0.10;;;;;;;;;;5025030;28;20205;-73
2021/12/17 15:45:44;;;;;;;0.10;0.10;;;;;;;;;;5024793;28;20394;-74
2021/12/17 15:48:13;;;;;;;0.10;0.10;;;;;;;;;;5024710;28;20208;-73
2021/12/17 15:50:48;;;;;;;0.10;0.10;;;;;;;;;;5024848;28;20398;-73
2021/12/17 15:53:14;;;;;;;3.77;1.70;;;;;;;;;;5024716;28;20294;-74
2021/12/17 15:55:41;;;;;;;0.20;0.20;;;;;;;;;;5041467;28;20270;-74
2021/12/17 15:58:07;;;;;;;0.10;0.10;;;;;;;;;;5037489;28;20214;-74
2021/12/17 16:00:35;;;;;;;0.10;0.10;;;;;;;;;;5044539;28;20269;-74
2021/12/17 16:03:02;;;;;;;0.10;0.10;;;;;;;;;;5044273;28;20377;-74
2021/12/17 16:05:30;;;;;;;0.10;0.10;;;;;;;;;;5044091;28;20220;-74
2021/12/17 16:07:57;;;;;;;0.10;0.10;;;;;;;;;;5044005;28;20205;-74
2021/12/17 16:11:10;;;;;;;0.10;0.10;;;;;;;;;;5041780;28;20247;-74
2021/12/17 16:21:44;;;;;;;0.10;0.10;;;;;;;;;;5023787;28;20208;-73
2021/12/17 16:24:13;;;;;;;0.10;0.10;;;;;;;;;;5024329;28;20198;-74
2021/12/17 16:26:39;;;;;;;0.10;0.10;;;;;;;;;;5024235;28;20520;-74
2021/12/17 16:29:08;;;;;;;0.10;0.10;;;;;;;;;;5023142;28;20248;-75
2021/12/17 16:31:34;;;;;;;0.20;0.20;;;;;;;;;;5024145;28;20205;-75
2021/12/17 16:34:02;;;;;;;0.10;0.10;;;;;;;;;;5024038;28;20208;-75
2021/12/17 16:36:29;;;;;;;0.20;0.20;;;;;;;;;;5023846;28;20201;-74
2021/12/17 16:38:55;;;;;;;0.20;0.20;;;;;;;;;;5024028;28;20543;-75
2021/12/17 16:41:24;;;;;;;0.10;0.10;;;;;;;;;;5029059;28;20439;-75
2021/12/17 16:43:58;;;;;;;0.10;0.10;;;;;;;;;;5023861;28;20213;-75
2021/12/17 16:47:01;;;;;;;0.10;0.10;;;;;;;;;;5023579;28;20217;-74
2021/12/17 16:49:12;;;;;;;0.13;0.13;;;;;;;;;;5023420;28;20211;-73
2021/12/17 16:51:39;;;;;;;0.10;0.10;;;;;;;;;;5040832;28;20288;-75
2021/12/17 16:54:05;;;;;;;0.20;0.20;;;;;;;;;;5043406;28;20219;-75
2021/12/17 16:56:33;;;;;;;0.10;0.10;;;;;;;;;;5043598;28;20405;-76
2021/12/17 16:58:59;;;;;;;0.20;0.20;;;;;;;;;;5043462;28;20208;-75
2021/12/17 17:01:27;;;;;;;0.20;0.20;;;;;;;;;;5043412;28;20239;-75
2021/12/17 17:03:54;;;;;;;0.10;0.10;;;;;;;;;;5043429;28;20220;-74
2021/12/17 17:06:21;;;;;;;0.10;0.10;;;;;;;;;;5026452;28;20264;-75
2021/12/17 17:08:47;;;;;;;0.10;0.10;;;;;;;;;;5023611;28;20205;-75
2021/12/17 17:11:14;;;;;;;0.20;0.20;;;;;;;;;;5023698;28;20452;-75
2021/12/17 17:13:42;;;;;;;0.10;0.10;;;;;;;;;;5023613;28;20394;-75
2021/12/17 17:16:09;;;;;;;0.10;0.10;;;;;;;;;;5023506;28;20229;-75